Time;durP1;ratioP1;P1;durP2;ratioP2;P2;SDS_P1;SDS_P2;PMS_P1;PMS_P2;Temp;Humidity;BMP_temperature;BMP_pressure;BME280_temperature;BME280_humidity;BME280_pressure;Samples;Min_cycle;Max_cycle;Signal;HPM_P1;HPM_P2
2022/05/06 00:00:22;;;;;;;4.03;2.80;;;;;;;1.90;71.01;99698.97;5072926;28;20098;-79
2022/05/06 00:02:48;;;;;;;2.90;2.60;;;;;;;2.00;70.50;99710.03;5072783;28;20040;-77
2022/05/06 00:05:14;;;;;;;2.88;2.40;;;;;;;1.95;70.68;99702.25;5038504;28;20047;-77
2022/05/06 00:07:40;;;;;;;3.75;2.60;;;;;;;1.89;70.49;99714.84;5039158;28;20495;-78
2022/05/06 00:10:07;;;;;;;4.03;2.10;;;;;;;1.93;70.22;99719.09;5025820;28;20047;-79
2022/05/06 00:12:33;;;;;;;4.95;2.33;;;;;;;1.97;70.21;99711.91;5042526;28;20364;-79
2022/05/06 00:14:59;;;;;;;3.15;2.58;;;;;;;1.93;69.92;99703.25;5059036;28;20047;-77
2022/05/06 00:17:25;;;;;;;3.33;2.70;;;;;;;2.02;69.62;99710.81;5042429;28;20126;-78
2022/05/06 00:19:51;;;;;;;3.25;2.03;;;;;;;1.96;69.45;99705.78;5042255;28;20044;-77
2022/05/06 00:22:17;;;;;;;2.85;2.20;;;;;;;2.07;69.05;99714.13;5025651;28;20488;-78
2022/05/06 00:24:43;;;;;;;2.20;1.70;;;;;;;2.03;68.73;99712.53;5052860;28;20049;-78
2022/05/06 00:27:09;;;;;;;2.90;2.10;;;;;;;2.09;68.61;99717.56;5006389;28;20532;-78
2022/05/06 00:29:35;;;;;;;2.08;1.65;;;;;;;2.07;68.75;99716.78;5022079;28;20045;-77
2022/05/06 00:32:02;;;;;;;2.08;1.73;;;;;;;2.10;68.14;99727.16;5022249;28;20103;-78
2022/05/06 00:34:28;;;;;;;3.42;2.15;;;;;;;2.09;68.48;99743.91;5038703;28;20106;-77
2022/05/06 00:36:55;;;;;;;1.88;1.77;;;;;;;2.15;68.02;99748.97;5039038;28;20519;-78
2022/05/06 00:39:21;;;;;;;3.28;1.77;;;;;;;2.18;67.78;99748.84;5038766;28;20040;-78
2022/05/06 00:41:47;;;;;;;4.53;1.90;;;;;;;2.18;67.48;99746.22;5056137;28;20044;-77
2022/05/06 00:44:13;;;;;;;5.47;2.13;;;;;;;2.13;67.63;99765.75;5038751;28;20052;-77
2022/05/06 00:46:39;;;;;;;2.63;2.10;;;;;;;2.22;67.29;99744.31;5038747;28;20049;-78
2022/05/06 00:49:12;;;;;;;2.08;1.52;;;;;;;2.24;66.82;99752.16;5022401;28;20052;-78
2022/05/06 00:51:39;;;;;;;5.38;2.13;;;;;;;2.29;66.93;99766.88;5048238;28;20184;-79
2022/05/06 00:54:06;;;;;;;1.58;1.48;;;;;;;2.24;66.38;99768.00;5055054;28;20048;-78
2022/05/06 00:56:33;;;;;;;2.33;1.92;;;;;;;2.15;66.37;99748.97;5006225;28;20041;-78
2022/05/06 00:58:59;;;;;;;2.08;1.60;;;;;;;2.17;66.42;99749.75;5021836;28;20041;-79
2022/05/06 01:01:24;;;;;;;6.90;2.00;;;;;;;2.26;66.73;99766.13;5056293;28;20052;-78
2022/05/06 01:03:51;;;;;;;4.00;1.60;;;;;;;2.28;66.36;99774.84;5038095;28;20123;-78
2022/05/06 01:06:17;;;;;;;3.55;2.20;;;;;;;2.28;66.35;99795.97;5038416;28;20045;-77
2022/05/06 01:08:50;;;;;;;3.38;2.05;;;;;;;2.34;66.18;99778.13;5006167;28;20040;-77
2022/05/06 01:11:18;;;;;;;5.85;1.77;;;;;;;2.33;65.76;99778.16;5022026;28;20048;-78
2022/05/06 01:13:45;;;;;;;1.70;1.50;;;;;;;2.37;65.68;99779.75;5041141;28;20048;-78
2022/05/06 01:16:16;;;;;;;2.80;1.92;;;;;;;2.42;65.73;99793.66;5041904;28;20049;-78
2022/05/06 01:18:51;;;;;;;2.25;1.98;;;;;;;2.49;65.09;99807.47;5024652;28;20037;-79
2022/05/06 01:21:26;;;;;;;3.22;1.63;;;;;;;2.46;65.01;99805.78;5055815;28;20049;-78
2022/05/06 01:23:52;;;;;;;2.83;2.00;;;;;;;2.55;64.58;99802.78;5021742;28;20049;-77
2022/05/06 01:26:18;;;;;;;5.03;2.30;;;;;;;2.60;63.88;99813.19;5037746;28;20135;-77
2022/05/06 01:28:45;;;;;;;3.00;1.88;;;;;;;2.64;62.76;99807.72;5037808;28;20041;-78
2022/05/06 01:31:22;;;;;;;5.65;2.35;;;;;;;2.75;62.40;99822.25;5054463;28;20049;-76
2022/05/06 01:33:55;;;;;;;3.80;2.05;;;;;;;2.81;62.80;99822.84;5037738;28;20045;-77
2022/05/06 01:36:25;;;;;;;3.88;2.00;;;;;;;2.83;61.63;99830.72;5021844;28;20041;-77
2022/05/06 01:38:54;;;;;;;1.98;1.88;;;;;;;2.77;61.18;99831.81;5037011;28;20044;-76
2022/05/06 01:41:25;;;;;;;3.38;2.20;;;;;;;2.75;60.67;99811.69;5004846;28;20048;-78
2022/05/06 01:44:17;;;;;;;5.00;2.00;;;;;;;2.75;60.32;99830.19;5036951;28;20478;-78
2022/05/06 01:46:44;;;;;;;2.70;1.73;;;;;;;2.86;59.68;99851.72;5005161;28;20491;-77
2022/05/06 01:49:19;;;;;;;3.28;1.80;;;;;;;2.83;59.00;99846.56;5022410;28;20045;-78
2022/05/06 01:51:48;;;;;;;1.88;1.50;;;;;;;2.75;58.42;99843.38;5020860;28;20430;-77
2022/05/06 01:54:18;;;;;;;1.60;1.50;;;;;;;2.62;58.89;99862.31;5037296;28;20045;-77
2022/05/06 01:56:48;;;;;;;4.28;2.10;;;;;;;2.51;59.33;99861.88;5004986;28;20516;-78
2022/05/06 01:59:15;;;;;;;3.50;1.58;;;;;;;2.45;59.31;99862.13;5053870;28;20426;-78
2022/05/06 02:01:42;;;;;;;4.05;2.13;;;;;;;2.45;59.11;99864.78;5036895;28;20045;-78
2022/05/06 02:06:54;;;;;;;3.97;1.90;;;;;;;2.31;59.52;99867.94;5036878;28;20037;-77
2022/05/06 02:09:21;;;;;;;3.30;2.00;;;;;;;2.38;59.50;99874.69;5054763;28;20060;-77
2022/05/06 02:11:53;;;;;;;3.13;1.80;;;;;;;2.47;59.25;99886.66;5021582;28;20056;-77
2022/05/06 02:14:20;;;;;;;3.25;1.65;;;;;;;2.44;59.20;99892.06;5053481;28;20545;-77
2022/05/06 02:17:15;;;;;;;3.20;1.67;;;;;;;2.39;59.65;99894.88;5036281;28;20135;-78
2022/05/06 02:20:13;;;;;;;4.57;2.13;;;;;;;2.45;59.72;99912.28;5031674;28;20427;-78
2022/05/06 02:22:53;;;;;;;2.90;1.95;;;;;;;2.52;59.41;99924.31;5038987;28;20045;-79
2022/05/06 02:25:28;;;;;;;5.93;1.70;;;;;;;2.54;59.08;99924.25;5066271;28;20044;-79
2022/05/06 02:28:02;;;;;;;2.58;1.70;;;;;;;2.55;58.97;99921.53;5074524;28;20068;-79
2022/05/06 02:33:23;;;;;;;2.92;2.03;;;;;;;2.53;57.76;99923.38;5039514;28;20043;-78
2022/05/06 02:35:56;;;;;;;2.07;1.50;;;;;;;2.61;57.41;99925.75;5024268;28;20052;-79
2022/05/06 02:38:27;;;;;;;5.07;1.65;;;;;;;2.54;56.79;99943.56;5056407;28;20510;-79
2022/05/06 02:40:55;;;;;;;4.57;1.90;;;;;;;2.59;56.85;99938.97;5056135;28;20097;-79
2022/05/06 02:43:21;;;;;;;3.78;2.17;;;;;;;2.69;56.83;99947.41;5074312;28;20059;-79
2022/05/06 02:45:51;;;;;;;;;;;;;;;2.85;56.16;99950.31;5072940;28;20134;-78
2022/05/06 02:48:17;;;;;;;4.85;1.80;;;;;;;2.67;55.37;99955.41;5055873;28;19916;-79
2022/05/06 02:50:43;;;;;;;5.95;1.77;;;;;;;2.83;55.49;99952.19;5055802;28;20403;-78
2022/05/06 02:53:10;;;;;;;2.25;1.60;;;;;;;3.00;55.26;99985.84;5055771;28;20044;-78
2022/05/06 02:55:36;;;;;;;1.98;1.77;;;;;;;2.88;54.66;99955.50;5056326;28;20127;-78
2022/05/06 02:58:03;;;;;;;3.60;1.63;;;;;;;2.97;54.46;99968.34;5055842;28;20526;-79
2022/05/06 03:00:30;;;;;;;2.38;2.08;;;;;;;3.02;54.47;99963.75;5039704;28;20067;-77
2022/05/06 03:02:59;;;;;;;4.07;1.88;;;;;;;3.14;54.29;99967.69;5056375;28;20046;-77
2022/05/06 03:05:27;;;;;;;4.97;1.98;;;;;;;3.10;54.22;99961.66;5022710;28;20463;-78
2022/05/06 03:07:55;;;;;;;5.05;1.55;;;;;;;3.22;53.73;99964.72;5071932;28;20056;-78
2022/05/06 03:10:25;;;;;;;1.55;1.45;;;;;;;3.13;54.08;99987.94;5039175;28;20047;-77
2022/05/06 03:12:58;;;;;;;3.42;1.50;;;;;;;3.17;53.87;99993.97;5022720;28;20047;-78
2022/05/06 03:15:24;;;;;;;3.97;1.67;;;;;;;3.46;53.62;99990.19;5038896;28;20076;-77
2022/05/06 03:17:57;;;;;;;3.13;1.85;;;;;;;3.56;53.10;99985.34;5040319;28;20067;-79
2022/05/06 03:20:23;;;;;;;3.05;1.50;;;;;;;3.81;52.73;100009.00;5074024;28;20051;-77
2022/05/06 03:22:50;;;;;;;4.75;1.92;;;;;;;3.87;52.25;100016.69;5055304;28;20036;-87
2022/05/06 03:25:17;;;;;;;2.10;1.63;;;;;;;4.01;52.20;100009.03;5055677;28;20052;-79
2022/05/06 03:30:29;;;;;;;3.08;1.50;;;;;;;4.07;51.42;100019.34;5055049;28;20055;-78
2022/05/06 03:33:03;;;;;;;2.78;1.60;;;;;;;4.21;51.19;100017.88;5056707;28;20059;-80
2022/05/06 03:35:34;;;;;;;3.53;1.60;;;;;;;4.32;50.45;100031.53;5039137;28;20147;-78
2022/05/06 03:38:01;;;;;;;2.72;1.73;;;;;;;4.78;54.03;100026.84;5072214;28;20110;-81
2022/05/06 03:40:27;;;;;;;5.72;1.90;;;;;;;4.81;50.00;100016.09;5022091;28;20063;-76
2022/05/06 03:42:54;;;;;;;3.40;2.00;;;;;;;4.80;49.33;100047.03;5071314;28;20099;-77
2022/05/06 03:45:21;;;;;;;1.95;1.60;;;;;;;4.77;49.27;100025.13;5054677;28;20063;-76
2022/05/06 03:47:48;;;;;;;1.67;1.40;;;;;;;4.66;48.47;100022.09;5038974;28;20055;-79
2022/05/06 03:53:00;;;;;;;10.73;1.77;;;;;;;4.73;49.38;100039.44;5038436;28;20507;-79
2022/05/06 03:55:28;;;;;;;4.10;3.10;;;;;;;4.90;49.50;100028.09;5037363;28;20076;-80
2022/05/06 03:57:56;;;;;;;2.53;1.58;;;;;;;5.00;49.04;100032.91;5019264;28;20095;-78
2022/05/06 04:00:26;;;;;;;2.15;1.58;;;;;;;4.97;48.81;100048.06;5019404;28;20040;-78
2022/05/06 04:02:59;;;;;;;2.75;1.83;;;;;;;5.14;48.57;100039.31;5035901;28;20448;-79
2022/05/06 04:05:27;;;;;;;2.42;1.50;;;;;;;5.15;48.87;100063.09;5035311;28;20056;-82
2022/05/06 04:07:57;;;;;;;;;;;;;;;5.26;49.22;100081.16;5002895;28;20053;-77
2022/05/06 04:10:24;;;;;;;5.95;2.15;;;;;;;5.13;47.59;100069.41;5018265;28;19917;-81
2022/05/06 04:12:52;;;;;;;4.03;2.17;;;;;;;4.85;47.34;100081.25;5034922;28;20500;-79
2022/05/06 04:15:19;;;;;;;3.03;1.80;;;;;;;5.01;48.43;100073.50;5034546;28;20095;-79
2022/05/06 04:17:47;;;;;;;4.13;1.90;;;;;;;5.06;48.31;100090.03;5018017;28;20037;-83
2022/05/06 04:25:46;;;;;;;1.83;1.50;;;;;;;5.09;47.47;100093.41;5066943;28;20057;-80
2022/05/06 04:28:15;;;;;;;2.83;1.70;;;;;;;5.35;47.03;100091.34;5021851;28;20040;-78
2022/05/06 04:30:45;;;;;;;1.83;1.30;;;;;;;5.36;46.60;100061.25;5038508;28;20041;-78
2022/05/06 04:33:14;;;;;;;2.70;1.60;;;;;;;5.31;46.60;100103.03;5054866;28;20503;-78
2022/05/06 04:35:43;;;;;;;2.20;1.80;;;;;;;5.40;46.70;100096.44;5054256;28;20110;-79
2022/05/06 04:38:12;;;;;;;1.47;1.37;;;;;;;5.50;46.61;100119.81;5054777;28;20049;-80
2022/05/06 04:40:40;;;;;;;3.53;1.80;;;;;;;5.44;45.75;100137.78;5054353;28;20049;-80
2022/05/06 04:43:10;;;;;;;3.65;1.60;;;;;;;5.55;45.92;100108.97;5065201;28;20041;-80
2022/05/06 04:45:41;;;;;;;3.30;1.70;;;;;;;5.71;46.32;100115.25;5038146;28;20048;-78
2022/05/06 04:48:11;;;;;;;3.08;1.38;;;;;;;5.87;45.58;100127.78;5037288;28;20395;-79
2022/05/06 04:50:39;;;;;;;3.03;1.35;;;;;;;5.55;44.86;100136.34;5054140;28;20127;-80
2022/05/06 04:53:09;;;;;;;1.95;1.30;;;;;;;5.69;44.80;100118.94;5054249;28;20053;-79
2022/05/06 04:55:36;;;;;;;2.70;1.70;;;;;;;5.70;44.88;100129.47;5040144;28;20059;-79
2022/05/06 04:58:04;;;;;;;3.47;2.00;;;;;;;5.80;44.28;100120.13;5058466;28;20136;-80
2022/05/06 05:00:31;;;;;;;4.13;1.70;;;;;;;5.92;44.76;100139.94;5075084;28;20059;-80
2022/05/06 05:02:58;;;;;;;2.05;1.50;;;;;;;6.13;43.11;100123.91;5042131;28;20095;-80
2022/05/06 05:05:25;;;;;;;2.00;1.52;;;;;;;6.25;43.24;100129.47;5058480;28;20052;-80
2022/05/06 05:07:53;;;;;;;2.38;1.60;;;;;;;6.38;41.77;100156.28;5041735;28;20048;-80
2022/05/06 05:10:21;;;;;;;2.10;1.63;;;;;;;6.04;41.11;100136.69;5057601;28;20041;-79
2022/05/06 05:12:48;;;;;;;2.53;1.38;;;;;;;6.40;40.05;100114.56;5041350;28;20298;-80
2022/05/06 05:15:16;;;;;;;2.78;1.55;;;;;;;6.51;38.39;100112.25;5064080;28;20126;-80
2022/05/06 05:17:44;;;;;;;3.40;1.67;;;;;;;6.66;38.97;100123.88;5061574;28;20052;-79
2022/05/06 05:20:11;;;;;;;5.20;1.30;;;;;;;6.47;37.81;100126.63;5057726;28;20123;-79
2022/05/06 05:22:39;;;;;;;1.02;1.00;;;;;;;6.54;37.16;100128.03;5057751;28;20052;-80
2022/05/06 05:25:10;;;;;;;2.58;1.65;;;;;;;6.56;38.24;100126.13;5057622;28;20056;-81
2022/05/06 05:27:37;;;;;;;4.15;1.42;;;;;;;6.65;37.62;100134.56;5058220;28;20040;-78
2022/05/06 05:30:08;;;;;;;1.83;1.42;;;;;;;6.87;36.89;100140.50;5075560;28;20078;-81
2022/05/06 05:32:36;;;;;;;3.70;1.50;;;;;;;6.81;35.43;100141.69;5057226;28;20037;-79
2022/05/06 05:35:04;;;;;;;5.38;1.50;;;;;;;6.98;35.70;100127.50;5024286;28;20492;-79
2022/05/06 05:37:34;;;;;;;2.92;1.60;;;;;;;7.18;34.14;100102.50;5057568;28;20048;-82
2022/05/06 05:40:03;;;;;;;1.17;0.85;;;;;;;7.05;32.21;100142.19;5041188;28;20048;-81
2022/05/06 05:42:32;;;;;;;1.10;1.00;;;;;;;7.02;31.25;100122.88;5024538;28;20041;-81
2022/05/06 05:50:38;;;;;;;1.35;1.23;;;;;;;6.52;31.68;100145.81;5056733;28;20055;-84
2022/05/06 05:53:06;;;;;;;3.00;1.40;;;;;;;6.63;32.23;100147.09;5023900;28;20492;-79
2022/05/06 05:55:32;;;;;;;3.15;1.00;;;;;;;6.49;31.55;100159.25;5024216;28;20048;-79
2022/05/06 05:58:02;;;;;;;3.13;1.15;;;;;;;6.47;32.45;100162.91;5040357;28;20495;-79
2022/05/06 06:00:29;;;;;;;2.40;1.13;;;;;;;6.59;33.55;100164.97;5075389;28;20045;-87
2022/05/06 06:02:59;;;;;;;4.47;1.42;;;;;;;6.52;33.32;100177.69;5041267;28;20050;-89
2022/05/06 06:05:26;;;;;;;3.63;1.63;;;;;;;6.42;33.22;100187.03;5061800;28;20097;-82
2022/05/06 06:07:52;;;;;;;4.57;1.17;;;;;;;6.29;33.00;100200.06;5094919;28;20044;-80
2022/05/06 06:10:20;;;;;;;3.40;1.40;;;;;;;6.21;33.95;100198.75;5076635;28;20403;-81
2022/05/06 06:12:47;;;;;;;4.03;1.40;;;;;;;6.32;34.61;100191.13;5059403;28;20431;-83
2022/05/06 06:15:15;;;;;;;2.15;1.40;;;;;;;6.43;34.04;100191.44;5059987;28;20032;-81
2022/05/06 06:17:42;;;;;;;2.97;1.58;;;;;;;6.56;33.12;100208.47;5076483;28;20090;-79
2022/05/06 06:20:10;;;;;;;2.50;1.30;;;;;;;6.52;32.87;100187.47;5060164;28;20035;-83
2022/05/06 06:22:43;;;;;;;2.45;1.40;;;;;;;6.70;32.45;100191.84;5060146;28;20036;-80
2022/05/06 06:25:10;;;;;;;4.30;1.45;;;;;;;6.81;32.15;100189.50;5077178;28;20483;-79
2022/05/06 06:27:37;;;;;;;3.30;1.27;;;;;;;7.22;31.82;100196.25;5076596;28;20055;-76
2022/05/06 06:30:08;;;;;;;2.70;1.10;;;;;;;7.45;31.43;100201.25;5076207;28;20127;-84
2022/05/06 06:32:35;;;;;;;2.70;1.50;;;;;;;7.36;30.00;100200.88;5075449;28;20494;-80
2022/05/06 06:35:03;;;;;;;2.08;1.05;;;;;;;7.27;30.07;100196.91;5042664;28;20066;-79
2022/05/06 06:37:38;;;;;;;3.03;1.30;;;;;;;7.25;30.28;100183.66;5074972;28;20138;-81
2022/05/06 06:40:06;;;;;;;1.60;1.30;;;;;;;7.58;30.08;100161.53;5059711;28;20036;-82
2022/05/06 06:42:33;;;;;;;2.60;1.30;;;;;;;7.87;29.25;100191.88;5017786;28;20148;-77
2022/05/06 06:45:23;;;;;;;1.20;1.10;;;;;;;7.81;29.74;100217.97;5032688;28;20172;-76
2022/05/06 06:47:53;;;;;;;2.37;1.00;;;;;;;7.47;29.14;100194.03;5035104;28;20048;-78
2022/05/06 06:50:30;;;;;;;3.53;1.38;;;;;;;7.65;30.07;100216.13;5002888;28;20337;-77
2022/05/06 07:19:46;;;;;;;2.78;1.20;;;;;;;7.27;29.99;100231.47;5074151;27;1423417;-78
2022/05/06 07:22:12;;;;;;;1.88;1.23;;;;;;;7.62;29.27;100239.38;5071688;28;20040;-78
2022/05/06 07:24:42;;;;;;;2.05;1.85;;;;;;;8.02;28.61;100252.25;5071459;28;20052;-78
2022/05/06 07:27:08;;;;;;;1.40;1.10;;;;;;;8.36;28.54;100253.03;5071949;28;20044;-79
2022/05/06 07:29:34;;;;;;;3.53;1.10;;;;;;;8.37;27.90;100236.13;5054699;28;20047;-76
2022/05/06 07:32:00;;;;;;;0.82;0.82;;;;;;;8.67;27.63;100230.00;5089602;28;20044;-79
2022/05/06 07:34:26;;;;;;;2.00;1.30;;;;;;;9.05;28.25;100241.06;5087723;28;20135;-78
2022/05/06 07:36:52;;;;;;;2.00;1.85;;;;;;;9.22;27.77;100256.09;5071368;28;20131;-78
2022/05/06 07:39:18;;;;;;;5.85;1.50;;;;;;;8.99;28.07;100258.31;5070686;28;20483;-77
2022/05/06 07:41:44;;;;;;;1.23;0.93;;;;;;;8.37;27.30;100268.09;5054674;28;20040;-77
2022/05/06 07:44:10;;;;;;;1.27;1.15;;;;;;;8.39;27.31;100266.22;5089426;28;20136;-76
2022/05/06 07:46:37;;;;;;;2.95;1.30;;;;;;;8.39;27.17;100258.22;5071243;28;20036;-76
2022/05/06 07:49:04;;;;;;;1.90;1.10;;;;;;;8.57;26.96;100266.09;5089259;28;20051;-76
2022/05/06 07:51:30;;;;;;;0.98;0.98;;;;;;;8.79;26.45;100253.28;5070972;28;20040;-77
2022/05/06 07:53:56;;;;;;;2.67;1.10;;;;;;;9.05;26.98;100240.22;5071492;28;20047;-83
2022/05/06 07:56:23;;;;;;;2.60;1.02;;;;;;;9.20;26.53;100265.97;5071672;28;20044;-83
2022/05/06 07:58:50;;;;;;;3.40;1.23;;;;;;;8.91;27.25;100267.69;5054896;28;20043;-84
2022/05/06 08:01:16;;;;;;;1.58;1.00;;;;;;;9.18;26.87;100257.22;5071220;28;20044;-79
2022/05/06 08:06:26;;;;;;;7.65;1.30;;;;;;;9.72;25.58;100257.47;5071307;28;20048;-81
2022/05/06 08:08:52;;;;;;;2.22;1.20;;;;;;;9.57;26.30;100258.44;5054924;28;20043;-79
2022/05/06 08:11:18;;;;;;;1.20;1.08;;;;;;;9.77;25.89;100255.38;5054851;28;20070;-80
2022/05/06 08:13:44;;;;;;;3.75;1.27;;;;;;;9.76;26.26;100251.00;5088722;28;20082;-79
2022/05/06 08:16:10;;;;;;;1.30;1.20;;;;;;;9.61;25.82;100250.13;5071590;28;20033;-78
2022/05/06 08:18:37;;;;;;;2.97;1.33;;;;;;;9.96;26.57;100265.75;5067238;28;20117;-79
2022/05/06 08:21:03;;;;;;;3.78;1.95;;;;;;;10.11;25.88;100269.28;5034264;28;20079;-79
2022/05/06 08:23:29;;;;;;;1.35;1.20;;;;;;;9.49;25.22;100267.75;5050948;28;20079;-78
2022/05/06 08:25:55;;;;;;;1.10;1.10;;;;;;;9.58;26.00;100273.47;5067752;28;20504;-78
2022/05/06 08:28:22;;;;;;;2.33;1.40;;;;;;;10.09;25.86;100265.88;5051420;28;20060;-80
2022/05/06 08:30:49;;;;;;;1.20;1.10;;;;;;;10.38;24.96;100267.56;5054573;28;20102;-77
2022/05/06 08:33:15;;;;;;;1.25;1.08;;;;;;;10.42;24.47;100258.41;5070985;28;20096;-78
2022/05/06 08:35:42;;;;;;;1.40;1.30;;;;;;;10.32;24.37;100283.13;5037596;28;20059;-78
2022/05/06 08:38:09;;;;;;;1.10;1.00;;;;;;;10.27;23.83;100262.06;5070812;28;20410;-77
2022/05/06 08:40:38;;;;;;;3.47;1.30;;;;;;;10.06;24.34;100271.41;5037389;28;20503;-79
2022/05/06 08:43:04;;;;;;;1.23;1.05;;;;;;;9.67;24.67;100272.94;5037628;28;20041;-78
2022/05/06 08:51:03;;;;;;;1.67;1.15;;;;;;;9.64;26.37;100260.63;5034073;28;20439;-80
2022/05/06 08:53:33;;;;;;;3.80;1.45;;;;;;;10.48;25.50;100275.84;5033819;28;20049;-80
2022/05/06 08:56:02;;;;;;;2.33;1.05;;;;;;;10.82;24.46;100282.50;5033932;28;20041;-79
2022/05/06 08:58:31;;;;;;;;;;;;;;;10.48;24.19;100325.78;5033970;28;20407;-78
2022/05/06 09:01:06;;;;;;;1.90;1.02;;;;;;;10.32;24.72;100281.31;5017129;28;20023;-79
2022/05/06 09:03:32;;;;;;;2.15;1.15;;;;;;;10.63;24.54;100268.63;5006286;28;20045;-79
2022/05/06 09:05:59;;;;;;;1.65;1.00;;;;;;;10.62;24.49;100258.91;5053618;28;20127;-79
2022/05/06 09:08:38;;;;;;;1.05;1.00;;;;;;;10.30;24.64;100307.25;5053018;28;20045;-81
2022/05/06 09:11:08;;;;;;;2.85;1.42;;;;;;;10.70;24.87;100273.47;5070551;28;20052;-78
2022/05/06 09:13:49;;;;;;;2.05;1.10;;;;;;;10.55;24.69;100295.00;5036855;28;20040;-79
2022/05/06 09:16:41;;;;;;;7.90;1.60;;;;;;;10.50;25.43;100270.41;5052415;28;20091;-79
2022/05/06 09:19:15;;;;;;;3.50;1.40;;;;;;;10.97;24.07;100279.78;5052639;28;20040;-79
2022/05/06 09:21:59;;;;;;;1.38;1.27;;;;;;;11.17;23.25;100282.00;5020247;28;20079;-78
2022/05/06 09:24:28;;;;;;;3.92;1.08;;;;;;;11.32;23.10;100297.00;5037004;28;20478;-79
2022/05/06 09:27:09;;;;;;;4.00;1.15;;;;;;;11.51;22.43;100290.38;5052941;28;20041;-79
2022/05/06 09:29:47;;;;;;;1.58;1.10;;;;;;;11.54;22.59;100282.13;5055667;28;20095;-79
2022/05/06 09:32:18;;;;;;;2.63;1.48;;;;;;;11.56;23.03;100285.56;5073871;28;20056;-79
2022/05/06 09:34:48;;;;;;;7.70;1.30;;;;;;;11.68;23.04;100279.34;5020674;28;20495;-79
2022/05/06 09:37:33;;;;;;;1.48;1.27;;;;;;;11.80;23.17;100275.81;5036736;28;20040;-80
2022/05/06 09:40:13;;;;;;;1.33;1.23;;;;;;;12.45;22.89;100282.84;5036565;28;20053;-80
2022/05/06 09:42:41;;;;;;;3.75;1.25;;;;;;;12.81;22.33;100299.88;5053157;28;20041;-80
2022/05/06 09:45:09;;;;;;;3.40;1.40;;;;;;;12.85;20.99;100287.94;5069412;28;20049;-80
2022/05/06 09:47:36;;;;;;;1.20;1.10;;;;;;;12.50;21.03;100301.28;5052286;28;20037;-80
2022/05/06 09:50:04;;;;;;;2.67;1.00;;;;;;;12.51;21.36;100282.38;5052226;28;20091;-80
2022/05/06 09:52:30;;;;;;;9.67;1.40;;;;;;;12.48;21.62;100330.84;5052748;28;20204;-79
2022/05/06 09:54:57;;;;;;;1.15;1.05;;;;;;;12.38;21.58;100290.47;5052979;28;20045;-79
2022/05/06 09:57:23;;;;;;;1.48;1.20;;;;;;;12.88;21.85;100298.44;5036539;28;20075;-79
2022/05/06 09:59:50;;;;;;;6.88;1.15;;;;;;;13.11;21.80;100292.19;5060384;28;20567;-80
2022/05/06 10:02:17;;;;;;;8.25;1.67;;;;;;;13.74;20.93;100273.13;5035534;28;20040;-79
2022/05/06 10:04:44;;;;;;;3.50;1.10;;;;;;;13.93;20.33;100291.34;5044024;28;20503;-79
2022/05/06 10:07:14;;;;;;;3.03;1.10;;;;;;;13.70;20.23;100294.00;5010881;28;20090;-78
2022/05/06 10:09:53;;;;;;;1.00;1.00;;;;;;;13.10;20.49;100295.00;5045880;28;20041;-79
2022/05/06 10:12:22;;;;;;;2.55;1.20;;;;;;;13.47;20.72;100305.69;5026026;28;20542;-79
2022/05/06 10:14:49;;;;;;;4.00;1.20;;;;;;;13.48;20.12;100304.69;5027525;28;20041;-78
2022/05/06 10:17:47;;;;;;;1.40;1.30;;;;;;;13.68;20.00;100290.56;5023515;28;20079;-79
2022/05/06 10:20:38;;;;;;;6.93;1.50;;;;;;;14.05;19.53;100315.41;5008084;28;20439;-79
2022/05/06 10:23:09;;;;;;;1.92;1.20;;;;;;;14.15;19.11;100307.50;5042505;28;20076;-77
2022/05/06 10:25:42;;;;;;;1.73;1.42;;;;;;;13.86;19.48;100312.47;5014812;28;20128;-78
2022/05/06 10:34:23;;;;;;;4.10;1.10;;;;;;;15.38;19.63;100329.75;5041145;28;20037;-78
2022/05/06 10:36:51;;;;;;;6.00;1.10;;;;;;;15.26;18.73;100315.47;5009679;28;20673;-78
2022/05/06 10:39:21;;;;;;;1.30;1.10;;;;;;;15.35;19.56;100303.09;5029924;28;20055;-79
2022/05/06 10:42:08;;;;;;;2.42;1.13;;;;;;;16.20;18.67;100292.13;5039587;28;20279;-78
2022/05/06 10:44:44;;;;;;;1.23;1.13;;;;;;;16.30;17.47;100325.41;5031903;28;20143;-79
2022/05/06 10:47:15;;;;;;;4.55;1.05;;;;;;;15.87;17.99;100312.09;5015302;28;20045;-78
2022/05/06 10:49:46;;;;;;;1.70;0.88;;;;;;;16.44;17.73;100289.09;5032017;28;20064;-79
2022/05/06 10:52:33;;;;;;;2.42;1.30;;;;;;;16.40;17.08;100320.06;5032847;28;20495;-78
2022/05/06 10:55:03;;;;;;;3.13;1.40;;;;;;;15.30;18.10;100331.25;5038076;28;20045;-79
2022/05/06 10:57:32;;;;;;;1.45;1.35;;;;;;;15.11;18.38;100304.16;5031646;28;20148;-79
2022/05/06 11:00:00;;;;;;;2.00;1.27;;;;;;;16.10;17.76;100296.59;5034649;28;20537;-77
2022/05/06 11:02:38;;;;;;;1.52;1.17;;;;;;;16.85;17.16;100319.63;5035331;28;20303;-79
2022/05/06 11:05:14;;;;;;;2.15;0.95;;;;;;;15.45;17.39;100325.56;5018729;28;20063;-79
2022/05/06 11:07:42;;;;;;;1.25;1.10;;;;;;;15.67;17.49;100317.38;5034985;28;20449;-81
2022/05/06 11:10:21;;;;;;;1.40;1.30;;;;;;;15.53;17.53;100323.06;5051839;28;20041;-79
2022/05/06 11:12:50;;;;;;;7.03;1.70;;;;;;;16.82;17.30;100304.56;5051861;28;20040;-79
2022/05/06 11:15:21;;;;;;;1.38;1.10;;;;;;;17.48;16.42;100307.44;5052828;28;20044;-80
2022/05/06 11:17:49;;;;;;;1.20;1.10;;;;;;;17.93;16.00;100308.66;5052588;28;20455;-81
2022/05/06 11:20:26;;;;;;;3.95;1.20;;;;;;;17.90;16.48;100300.84;5051219;28;20068;-79
2022/05/06 11:23:08;;;;;;;3.40;0.95;;;;;;;18.09;15.67;100298.09;5051777;28;20045;-80
2022/05/06 11:25:48;;;;;;;2.83;0.90;;;;;;;18.14;16.00;100287.66;5068048;28;20402;-79
2022/05/06 11:28:17;;;;;;;2.60;0.90;;;;;;;18.48;15.87;100295.22;5052575;28;20049;-79
2022/05/06 11:30:45;;;;;;;2.53;1.00;;;;;;;16.92;15.61;100315.38;5035471;28;20047;-79
2022/05/06 11:33:24;;;;;;;4.03;1.00;;;;;;;16.49;16.50;100309.28;5056593;28;20040;-93
2022/05/06 11:35:53;;;;;;;1.15;1.05;;;;;;;17.26;15.86;100306.88;5022040;28;20176;-78
2022/05/06 11:38:32;;;;;;;;;;;;;;;17.94;16.10;100313.06;5053608;28;20052;-80
2022/05/06 11:41:12;;;;;;;3.80;1.20;;;;;;;18.61;15.42;100311.09;5018242;28;19917;-76
2022/05/06 11:43:39;;;;;;;3.63;0.93;;;;;;;18.62;14.81;100313.66;5018426;28;20147;-78
2022/05/06 11:48:50;;;;;;;6.93;1.30;;;;;;;18.04;15.17;100302.22;5051128;28;20514;-78
2022/05/06 11:51:25;;;;;;;1.75;1.08;;;;;;;18.58;15.14;100328.53;5050655;28;20053;-77
2022/05/06 11:53:52;;;;;;;3.60;1.02;;;;;;;18.63;15.06;100315.38;5051383;28;20135;-78
2022/05/06 11:56:23;;;;;;;1.70;1.13;;;;;;;19.22;14.75;100312.28;5052393;28;20037;-79
2022/05/06 11:58:51;;;;;;;0.90;0.90;;;;;;;19.06;14.75;100329.25;5050842;28;20094;-78
2022/05/06 12:01:27;;;;;;;1.63;1.13;;;;;;;19.26;15.16;100319.13;5051043;28;20037;-79
2022/05/06 12:03:53;;;;;;;1.73;0.90;;;;;;;19.40;14.32;100326.69;5034211;28;20048;-79
2022/05/06 12:06:26;;;;;;;5.15;0.90;;;;;;;18.51;14.33;100323.84;5071161;28;20049;-78
2022/05/06 12:09:21;;;;;;;1.63;0.98;;;;;;;18.57;14.41;100321.38;5038284;28;20052;-79
2022/05/06 12:12:07;;;;;;;5.68;1.30;;;;;;;19.68;14.20;100315.78;5054652;28;20132;-78
2022/05/06 12:14:34;;;;;;;10.93;1.35;;;;;;;19.73;14.56;100310.72;5038138;28;20040;-79
2022/05/06 12:17:03;;;;;;;3.05;1.10;;;;;;;20.04;14.44;100322.81;5037739;28;20103;-80
2022/05/06 12:19:46;;;;;;;1.52;0.93;;;;;;;20.84;13.67;100315.25;5037810;28;20049;-78
2022/05/06 12:22:15;;;;;;;1.30;1.20;;;;;;;20.98;14.10;100321.03;5057799;28;20048;-78
2022/05/06 12:24:46;;;;;;;2.03;0.90;;;;;;;21.78;13.32;100302.28;5057801;28;20056;-80
2022/05/06 12:27:24;;;;;;;1.75;1.10;;;;;;;21.77;12.86;100281.50;5075521;28;20036;-79
2022/05/06 12:29:50;;;;;;;2.08;1.00;;;;;;;21.10;13.19;100314.31;5074561;28;20454;-78
2022/05/06 12:32:16;;;;;;;2.92;1.45;;;;;;;20.09;13.62;100315.06;5057504;28;20049;-79
2022/05/06 12:34:42;;;;;;;1.17;1.08;;;;;;;20.07;13.91;100310.78;5040579;28;20046;-79
2022/05/06 12:37:16;;;;;;;4.13;1.20;;;;;;;20.57;13.69;100329.06;5040345;28;20479;-78
2022/05/06 12:39:48;;;;;;;1.20;0.80;;;;;;;20.05;13.63;100329.97;5074390;28;20078;-80
2022/05/06 12:42:15;;;;;;;1.05;0.82;;;;;;;19.98;13.69;100333.47;5057325;28;20495;-80
2022/05/06 12:44:42;;;;;;;3.47;1.08;;;;;;;19.08;14.08;100329.97;5075337;28;20032;-79
2022/05/06 12:49:39;;;;;;;5.93;1.45;;;;;;;18.52;14.65;100312.84;5074017;28;20062;-80
2022/05/06 12:50:05;;;;;;;3.50;0.90;;;;;;;19.25;14.45;100325.53;5074092;28;20052;-79
2022/05/06 12:52:32;;;;;;;0.90;0.90;;;;;;;19.35;14.29;100339.88;5057081;28;20048;-78